sensor_id;sensor_type;location;lat;lon;timestamp;pressure;altitude;pressure_sealevel;temperature;humidity
56006;BME280;41888;44.696;10.522;2022-10-16T00:00:46;100931.22;;;17.48;100.00
56006;BME280;41888;44.696;10.522;2022-10-16T00:03:12;100930.16;;;17.49;100.00
56006;BME280;41888;44.696;10.522;2022-10-16T00:05:43;100929.69;;;17.40;100.00
56006;BME280;41888;44.696;10.522;2022-10-16T00:08:10;100935.34;;;17.39;100.00
56006;BME280;41888;44.696;10.522;2022-10-16T00:10:37;100938.03;;;17.39;100.00
56006;BME280;41888;44.696;10.522;2022-10-16T00:13:03;100934.97;;;17.47;100.00
56006;BME280;41888;44.696;10.522;2022-10-16T00:15:32;100946.34;;;17.25;100.00
56006;BME280;41888;44.696;10.522;2022-10-16T00:17:58;100938.84;;;17.39;100.00
56006;BME280;41888;44.696;10.522;2022-10-16T00:20:25;100936.06;;;17.34;100.00
56006;BME280;41888;44.696;10.522;2022-10-16T00:22:51;100951.91;;;17.47;100.00
56006;BME280;41888;44.696;10.522;2022-10-16T00:25:17;100950.78;;;17.43;100.00
56006;BME280;41888;44.696;10.522;2022-10-16T00:27:43;100951.09;;;17.47;100.00
56006;BME280;41888;44.696;10.522;2022-10-16T00:30:10;100959.06;;;17.30;100.00
56006;BME280;41888;44.696;10.522;2022-10-16T00:32:36;100951.00;;;17.42;100.00
56006;BME280;41888;44.696;10.522;2022-10-16T00:35:02;100957.31;;;17.36;100.00
56006;BME280;41888;44.696;10.522;2022-10-16T00:37:29;100955.72;;;17.23;100.00
56006;BME280;41888;44.696;10.522;2022-10-16T00:39:55;100951.00;;;17.42;100.00
56006;BME280;41888;44.696;10.522;2022-10-16T00:42:22;100958.13;;;17.48;100.00
56006;BME280;41888;44.696;10.522;2022-10-16T00:44:54;100956.72;;;17.45;100.00
56006;BME280;41888;44.696;10.522;2022-10-16T00:50:22;100965.16;;;17.25;100.00
56006;BME280;41888;44.696;10.522;2022-10-16T00:52:50;100970.09;;;17.28;100.00
56006;BME280;41888;44.696;10.522;2022-10-16T00:55:18;100970.19;;;17.34;100.00
56006;BME280;41888;44.696;10.522;2022-10-16T00:57:46;100962.69;;;17.36;100.00
56006;BME280;41888;44.696;10.522;2022-10-16T01:00:16;100974.75;;;17.45;100.00
56006;BME280;41888;44.696;10.522;2022-10-16T01:02:43;100967.56;;;17.50;100.00
56006;BME280;41888;44.696;10.522;2022-10-16T01:05:09;100973.66;;;17.57;100.00
56006;BME280;41888;44.696;10.522;2022-10-16T01:13:09;100961.16;;;17.51;100.00
56006;BME280;41888;44.696;10.522;2022-10-16T01:18:33;100959.41;;;17.45;100.00
56006;BME280;41888;44.696;10.522;2022-10-16T01:29:26;100963.28;;;17.38;100.00
56006;BME280;41888;44.696;10.522;2022-10-16T01:32:00;100956.84;;;17.39;100.00
56006;BME280;41888;44.696;10.522;2022-10-16T01:34:38;100955.78;;;17.40;100.00
56006;BME280;41888;44.696;10.522;2022-10-16T01:37:15;100956.97;;;17.44;100.00
56006;BME280;41888;44.696;10.522;2022-10-16T01:39:45;100954.28;;;17.44;100.00
56006;BME280;41888;44.696;10.522;2022-10-16T01:42:20;100965.16;;;17.25;100.00
56006;BME280;41888;44.696;10.522;2022-10-16T01:44:49;100957.56;;;17.34;100.00
56006;BME280;41888;44.696;10.522;2022-10-16T01:47:18;100961.19;;;17.28;100.00
56006;BME280;41888;44.696;10.522;2022-10-16T01:49:48;100963.06;;;17.04;100.00
56006;BME280;41888;44.696;10.522;2022-10-16T01:52:21;100958.50;;;16.81;100.00
56006;BME280;41888;44.696;10.522;2022-10-16T01:54:52;100962.47;;;16.67;100.00
56006;BME280;41888;44.696;10.522;2022-10-16T01:57:21;100963.63;;;16.60;100.00
56006;BME280;41888;44.696;10.522;2022-10-16T01:59:50;100962.81;;;16.59;100.00
56006;BME280;41888;44.696;10.522;2022-10-16T02:02:20;100952.63;;;16.61;100.00
56006;BME280;41888;44.696;10.522;2022-10-16T02:04:58;100966.00;;;16.79;100.00
56006;BME280;41888;44.696;10.522;2022-10-16T02:07:27;100970.88;;;16.59;100.00
56006;BME280;41888;44.696;10.522;2022-10-16T02:09:54;100971.59;;;16.78;100.00
56006;BME280;41888;44.696;10.522;2022-10-16T02:12:33;100973.69;;;16.64;100.00
56006;BME280;41888;44.696;10.522;2022-10-16T02:14:59;100971.69;;;16.60;100.00
56006;BME280;41888;44.696;10.522;2022-10-16T02:17:26;100970.34;;;16.39;100.00
56006;BME280;41888;44.696;10.522;2022-10-16T02:19:54;100979.06;;;16.34;100.00
56006;BME280;41888;44.696;10.522;2022-10-16T02:22:41;100972.81;;;16.11;100.00
56006;BME280;41888;44.696;10.522;2022-10-16T02:25:19;100969.19;;;15.87;100.00
56006;BME280;41888;44.696;10.522;2022-10-16T02:27:55;100973.97;;;15.85;100.00
56006;BME280;41888;44.696;10.522;2022-10-16T02:30:36;100972.41;;;15.77;100.00
56006;BME280;41888;44.696;10.522;2022-10-16T02:33:09;100969.38;;;15.74;100.00
56006;BME280;41888;44.696;10.522;2022-10-16T02:35:36;100964.22;;;15.72;100.00
56006;BME280;41888;44.696;10.522;2022-10-16T02:38:03;100968.47;;;15.61;100.00
56006;BME280;41888;44.696;10.522;2022-10-16T02:40:31;100972.66;;;15.57;100.00
56006;BME280;41888;44.696;10.522;2022-10-16T02:42:57;100977.69;;;15.66;100.00
56006;BME280;41888;44.696;10.522;2022-10-16T02:45:24;100975.56;;;15.56;100.00
56006;BME280;41888;44.696;10.522;2022-10-16T02:47:50;100976.84;;;15.53;100.00
56006;BME280;41888;44.696;10.522;2022-10-16T02:50:17;100981.38;;;15.53;100.00
56006;BME280;41888;44.696;10.522;2022-10-16T02:52:43;100982.72;;;15.62;100.00
56006;BME280;41888;44.696;10.522;2022-10-16T02:55:10;100980.84;;;15.62;100.00
56006;BME280;41888;44.696;10.522;2022-10-16T02:57:36;100986.13;;;15.69;100.00
56006;BME280;41888;44.696;10.522;2022-10-16T03:00:04;100978.22;;;15.56;100.00
56006;BME280;41888;44.696;10.522;2022-10-16T03:02:31;100980.94;;;15.49;100.00
56006;BME280;41888;44.696;10.522;2022-10-16T03:04:57;100979.31;;;15.30;100.00
56006;BME280;41888;44.696;10.522;2022-10-16T03:07:23;100983.63;;;15.49;100.00
56006;BME280;41888;44.696;10.522;2022-10-16T03:09:49;100987.81;;;15.45;100.00
56006;BME280;41888;44.696;10.522;2022-10-16T03:12:15;100989.63;;;15.33;100.00
56006;BME280;41888;44.696;10.522;2022-10-16T03:14:41;100987.13;;;15.32;100.00
56006;BME280;41888;44.696;10.522;2022-10-16T03:17:08;100993.53;;;15.31;100.00
56006;BME280;41888;44.696;10.522;2022-10-16T03:19:34;100992.91;;;15.10;100.00
56006;BME280;41888;44.696;10.522;2022-10-16T03:22:01;100998.38;;;14.97;100.00
56006;BME280;41888;44.696;10.522;2022-10-16T03:24:27;100998.09;;;14.80;100.00
56006;BME280;41888;44.696;10.522;2022-10-16T03:26:54;100998.38;;;14.97;100.00
56006;BME280;41888;44.696;10.522;2022-10-16T03:29:20;100990.25;;;14.86;100.00
56006;BME280;41888;44.696;10.522;2022-10-16T03:31:46;100992.59;;;14.75;100.00
56006;BME280;41888;44.696;10.522;2022-10-16T03:34:14;100992.25;;;14.65;100.00
56006;BME280;41888;44.696;10.522;2022-10-16T03:36:40;100998.47;;;14.59;100.00
56006;BME280;41888;44.696;10.522;2022-10-16T03:39:06;100999.06;;;14.68;100.00
56006;BME280;41888;44.696;10.522;2022-10-16T03:41:33;100999.38;;;14.53;100.00
56006;BME280;41888;44.696;10.522;2022-10-16T03:43:59;101003.06;;;14.52;100.00
56006;BME280;41888;44.696;10.522;2022-10-16T03:46:25;100995.38;;;14.62;100.00
56006;BME280;41888;44.696;10.522;2022-10-16T03:48:51;100999.94;;;14.55;100.00
56006;BME280;41888;44.696;10.522;2022-10-16T03:51:17;101009.28;;;14.46;100.00
56006;BME280;41888;44.696;10.522;2022-10-16T03:53:43;101008.91;;;14.43;100.00
56006;BME280;41888;44.696;10.522;2022-10-16T03:56:10;101009.13;;;14.41;100.00
56006;BME280;41888;44.696;10.522;2022-10-16T03:58:36;101008.25;;;14.47;100.00
56006;BME280;41888;44.696;10.522;2022-10-16T04:01:02;101010.78;;;14.29;100.00
56006;BME280;41888;44.696;10.522;2022-10-16T04:03:28;101005.94;;;14.13;100.00
56006;BME280;41888;44.696;10.522;2022-10-16T04:05:55;101013.31;;;14.17;100.00
56006;BME280;41888;44.696;10.522;2022-10-16T04:08:21;101015.63;;;14.14;100.00
56006;BME280;41888;44.696;10.522;2022-10-16T04:10:47;101017.75;;;13.99;100.00
56006;BME280;41888;44.696;10.522;2022-10-16T04:13:14;101010.22;;;13.82;100.00
56006;BME280;41888;44.696;10.522;2022-10-16T04:15:40;101018.88;;;13.78;100.00
56006;BME280;41888;44.696;10.522;2022-10-16T04:18:06;101026.09;;;13.64;100.00
56006;BME280;41888;44.696;10.522;2022-10-16T04:20:33;101016.44;;;13.63;100.00
56006;BME280;41888;44.696;10.522;2022-10-16T04:23:00;101022.00;;;13.55;100.00
56006;BME280;41888;44.696;10.522;2022-10-16T04:25:26;101021.56;;;13.65;100.00
56006;BME280;41888;44.696;10.522;2022-10-16T04:27:55;101016.44;;;13.63;100.00
56006;BME280;41888;44.696;10.522;2022-10-16T04:30:22;101022.34;;;13.85;100.00
56006;BME280;41888;44.696;10.522;2022-10-16T04:32:49;101018.44;;;13.81;100.00
56006;BME280;41888;44.696;10.522;2022-10-16T04:35:17;101010.56;;;13.92;100.00
56006;BME280;41888;44.696;10.522;2022-10-16T04:37:43;101010.34;;;14.01;100.00
56006;BME280;41888;44.696;10.522;2022-10-16T04:40:09;101004.00;;;13.88;100.00
56006;BME280;41888;44.696;10.522;2022-10-16T04:42:36;101016.94;;;13.91;100.00
56006;BME280;41888;44.696;10.522;2022-10-16T04:45:02;101020.91;;;13.82;100.00
56006;BME280;41888;44.696;10.522;2022-10-16T04:47:29;101023.38;;;13.77;100.00
56006;BME280;41888;44.696;10.522;2022-10-16T04:49:55;101015.63;;;13.69;100.00
56006;BME280;41888;44.696;10.522;2022-10-16T04:52:22;101020.97;;;13.56;100.00
56006;BME280;41888;44.696;10.522;2022-10-16T04:54:50;101025.13;;;13.45;100.00
56006;BME280;41888;44.696;10.522;2022-10-16T04:57:17;101025.75;;;13.41;100.00
56006;BME280;41888;44.696;10.522;2022-10-16T04:59:43;101025.56;;;13.42;100.00
56006;BME280;41888;44.696;10.522;2022-10-16T05:02:09;101037.31;;;13.22;100.00
56006;BME280;41888;44.696;10.522;2022-10-16T05:04:35;101035.03;;;13.12;100.00
56006;BME280;41888;44.696;10.522;2022-10-16T05:07:02;101041.19;;;13.13;100.00
56006;BME280;41888;44.696;10.522;2022-10-16T05:09:28;101046.34;;;13.14;100.00
56006;BME280;41888;44.696;10.522;2022-10-16T05:11:54;101038.94;;;13.16;100.00
56006;BME280;41888;44.696;10.522;2022-10-16T05:14:20;101040.56;;;13.24;100.00
56006;BME280;41888;44.696;10.522;2022-10-16T05:16:46;101034.22;;;13.25;100.00
56006;BME280;41888;44.696;10.522;2022-10-16T05:19:14;101035.84;;;13.19;100.00
56006;BME280;41888;44.696;10.522;2022-10-16T05:21:40;101037.69;;;13.25;100.00
56006;BME280;41888;44.696;10.522;2022-10-16T05:24:06;101033.78;;;13.28;100.00
56006;BME280;41888;44.696;10.522;2022-10-16T05:26:32;101040.78;;;13.35;100.00
56006;BME280;41888;44.696;10.522;2022-10-16T05:28:58;101039.53;;;13.31;100.00
56006;BME280;41888;44.696;10.522;2022-10-16T05:31:24;101039.94;;;13.28;100.00
56006;BME280;41888;44.696;10.522;2022-10-16T05:33:51;101049.41;;;13.31;100.00
56006;BME280;41888;44.696;10.522;2022-10-16T05:36:17;101054.72;;;13.44;100.00
56006;BME280;41888;44.696;10.522;2022-10-16T05:38:44;101054.75;;;13.37;100.00
56006;BME280;41888;44.696;10.522;2022-10-16T05:41:10;101051.66;;;13.47;100.00
56006;BME280;41888;44.696;10.522;2022-10-16T05:43:36;101062.34;;;13.40;100.00
56006;BME280;41888;44.696;10.522;2022-10-16T05:46:04;101056.81;;;13.29;100.00
56006;BME280;41888;44.696;10.522;2022-10-16T05:48:31;101052.88;;;13.51;100.00
56006;BME280;41888;44.696;10.522;2022-10-16T05:50:59;101054.91;;;13.49;100.00
56006;BME280;41888;44.696;10.522;2022-10-16T05:53:28;101064.16;;;13.60;100.00
56006;BME280;41888;44.696;10.522;2022-10-16T05:55:55;101069.72;;;13.58;100.00
56006;BME280;41888;44.696;10.522;2022-10-16T05:58:22;101068.63;;;13.85;100.00
56006;BME280;41888;44.696;10.522;2022-10-16T06:01:00;101068.16;;;14.02;100.00
56006;BME280;41888;44.696;10.522;2022-10-16T06:03:26;101083.31;;;14.65;100.00
56006;BME280;41888;44.696;10.522;2022-10-16T06:05:53;101085.13;;;15.03;100.00
56006;BME280;41888;44.696;10.522;2022-10-16T06:08:21;101087.47;;;15.42;100.00
56006;BME280;41888;44.696;10.522;2022-10-16T06:10:48;101092.41;;;15.88;100.00
56006;BME280;41888;44.696;10.522;2022-10-16T06:13:15;101090.22;;;15.97;100.00
56006;BME280;41888;44.696;10.522;2022-10-16T06:15:42;101098.75;;;16.12;100.00
56006;BME280;41888;44.696;10.522;2022-10-16T06:18:09;101107.09;;;16.22;100.00
56006;BME280;41888;44.696;10.522;2022-10-16T06:20:36;101107.31;;;16.39;100.00
56006;BME280;41888;44.696;10.522;2022-10-16T06:23:03;101116.44;;;17.09;100.00
56006;BME280;41888;44.696;10.522;2022-10-16T06:25:30;101117.06;;;17.35;100.00
56006;BME280;41888;44.696;10.522;2022-10-16T06:27:57;101129.28;;;17.60;100.00
56006;BME280;41888;44.696;10.522;2022-10-16T06:30:23;101133.56;;;17.38;100.00
56006;BME280;41888;44.696;10.522;2022-10-16T06:32:49;101133.88;;;16.77;100.00
56006;BME280;41888;44.696;10.522;2022-10-16T06:35:15;101138.09;;;16.36;100.00
56006;BME280;41888;44.696;10.522;2022-10-16T06:37:41;101139.88;;;16.24;100.00
56006;BME280;41888;44.696;10.522;2022-10-16T06:40:08;101144.09;;;16.02;100.00
56006;BME280;41888;44.696;10.522;2022-10-16T06:42:34;101152.19;;;15.95;100.00
56006;BME280;41888;44.696;10.522;2022-10-16T06:45:00;101153.84;;;15.96;100.00
56006;BME280;41888;44.696;10.522;2022-10-16T06:47:28;101158.25;;;15.91;100.00
56006;BME280;41888;44.696;10.522;2022-10-16T06:49:54;101157.94;;;15.99;100.00
56006;BME280;41888;44.696;10.522;2022-10-16T06:52:20;101161.50;;;15.93;100.00
56006;BME280;41888;44.696;10.522;2022-10-16T06:54:46;101166.88;;;15.93;100.00
56006;BME280;41888;44.696;10.522;2022-10-16T06:57:12;101163.66;;;15.84;100.00
56006;BME280;41888;44.696;10.522;2022-10-16T06:59:38;101165.84;;;15.94;100.00
56006;BME280;41888;44.696;10.522;2022-10-16T07:02:05;101171.97;;;16.01;100.00
56006;BME280;41888;44.696;10.522;2022-10-16T07:04:33;101176.34;;;16.14;100.00
56006;BME280;41888;44.696;10.522;2022-10-16T07:07:00;101177.19;;;16.14;100.00
56006;BME280;41888;44.696;10.522;2022-10-16T07:09:27;101179.88;;;16.14;100.00
56006;BME280;41888;44.696;10.522;2022-10-16T07:11:53;101181.31;;;16.17;100.00
56006;BME280;41888;44.696;10.522;2022-10-16T07:14:20;101184.19;;;16.15;100.00
56006;BME280;41888;44.696;10.522;2022-10-16T07:16:47;101189.59;;;16.33;100.00
56006;BME280;41888;44.696;10.522;2022-10-16T07:19:14;101188.81;;;16.44;100.00
56006;BME280;41888;44.696;10.522;2022-10-16T07:21:43;101197.97;;;16.55;100.00
56006;BME280;41888;44.696;10.522;2022-10-16T07:24:14;101200.06;;;16.60;100.00
56006;BME280;41888;44.696;10.522;2022-10-16T07:26:42;101199.66;;;16.74;100.00
56006;BME280;41888;44.696;10.522;2022-10-16T07:29:20;101201.81;;;16.84;100.00
56006;BME280;41888;44.696;10.522;2022-10-16T07:31:47;101204.75;;;16.94;100.00
56006;BME280;41888;44.696;10.522;2022-10-16T07:34:15;101204.00;;;17.05;100.00
56006;BME280;41888;44.696;10.522;2022-10-16T07:36:42;101205.22;;;17.21;100.00
56006;BME280;41888;44.696;10.522;2022-10-16T07:39:08;101202.81;;;17.43;100.00
56006;BME280;41888;44.696;10.522;2022-10-16T07:41:34;101213.41;;;17.79;100.00
56006;BME280;41888;44.696;10.522;2022-10-16T07:44:03;101217.63;;;18.22;100.00
56006;BME280;41888;44.696;10.522;2022-10-16T07:46:30;101223.00;;;18.45;100.00
56006;BME280;41888;44.696;10.522;2022-10-16T07:48:57;101227.19;;;18.64;100.00
56006;BME280;41888;44.696;10.522;2022-10-16T07:51:24;101230.22;;;18.68;100.00
56006;BME280;41888;44.696;10.522;2022-10-16T07:53:51;101226.66;;;18.90;100.00
56006;BME280;41888;44.696;10.522;2022-10-16T07:56:18;101226.88;;;19.17;100.00
56006;BME280;41888;44.696;10.522;2022-10-16T07:58:45;101239.38;;;19.35;100.00
56006;BME280;41888;44.696;10.522;2022-10-16T08:01:14;101240.16;;;19.64;100.00
56006;BME280;41888;44.696;10.522;2022-10-16T08:03:48;101239.09;;;19.81;100.00
56006;BME280;41888;44.696;10.522;2022-10-16T08:06:16;101233.22;;;20.23;100.00
56006;BME280;41888;44.696;10.522;2022-10-16T08:08:42;101250.13;;;20.74;100.00
56006;BME280;41888;44.696;10.522;2022-10-16T08:11:09;101251.91;;;21.33;100.00
56006;BME280;41888;44.696;10.522;2022-10-16T08:13:35;101253.78;;;21.60;100.00
56006;BME280;41888;44.696;10.522;2022-10-16T08:16:02;101246.34;;;21.77;100.00
56006;BME280;41888;44.696;10.522;2022-10-16T08:18:29;101258.53;;;21.47;100.00
56006;BME280;41888;44.696;10.522;2022-10-16T08:20:57;101259.38;;;21.48;97.89
56006;BME280;41888;44.696;10.522;2022-10-16T08:23:24;101251.84;;;21.87;97.94
56006;BME280;41888;44.696;10.522;2022-10-16T08:25:52;101264.19;;;22.42;97.49
56006;BME280;41888;44.696;10.522;2022-10-16T08:28:19;101267.72;;;23.04;94.18
56006;BME280;41888;44.696;10.522;2022-10-16T08:30:45;101260.66;;;23.03;90.76
56006;BME280;41888;44.696;10.522;2022-10-16T08:33:12;101255.31;;;23.44;90.48
56006;BME280;41888;44.696;10.522;2022-10-16T08:35:38;101259.66;;;24.36;85.67
56006;BME280;41888;44.696;10.522;2022-10-16T08:38:05;101262.53;;;24.70;81.24
56006;BME280;41888;44.696;10.522;2022-10-16T08:40:33;101263.06;;;26.57;73.26
56006;BME280;41888;44.696;10.522;2022-10-16T08:43:09;101266.19;;;27.67;67.97
56006;BME280;41888;44.696;10.522;2022-10-16T08:48:29;101271.28;;;29.74;59.62
56006;BME280;41888;44.696;10.522;2022-10-16T08:50:57;101272.50;;;29.10;59.05
56006;BME280;41888;44.696;10.522;2022-10-16T08:54:05;101269.59;;;28.51;60.24
56006;BME280;41888;44.696;10.522;2022-10-16T08:56:25;101268.84;;;26.50;66.49
56006;BME280;41888;44.696;10.522;2022-10-16T08:58:53;101261.03;;;26.43;68.12
56006;BME280;41888;44.696;10.522;2022-10-16T09:01:22;101261.56;;;25.10;72.17
56006;BME280;41888;44.696;10.522;2022-10-16T09:06:45;101263.41;;;26.74;66.77
56006;BME280;41888;44.696;10.522;2022-10-16T09:17:00;101275.41;;;29.63;54.97
56006;BME280;41888;44.696;10.522;2022-10-16T09:21:57;101278.25;;;28.72;57.18
56006;BME280;41888;44.696;10.522;2022-10-16T09:24:26;101274.63;;;27.34;62.16
56006;BME280;41888;44.696;10.522;2022-10-16T09:26:53;101270.63;;;26.07;66.58
56006;BME280;41888;44.696;10.522;2022-10-16T09:29:21;101276.50;;;25.95;68.83
56006;BME280;41888;44.696;10.522;2022-10-16T09:31:48;101276.03;;;27.12;64.57
56006;BME280;41888;44.696;10.522;2022-10-16T09:34:35;101281.66;;;27.91;61.15
56006;BME280;41888;44.696;10.522;2022-10-16T09:37:09;101276.28;;;28.18;60.42
56006;BME280;41888;44.696;10.522;2022-10-16T09:39:52;101283.16;;;29.11;56.49
56006;BME280;41888;44.696;10.522;2022-10-16T09:42:20;101284.13;;;29.65;54.85
56006;BME280;41888;44.696;10.522;2022-10-16T09:44:51;101285.16;;;30.22;52.54
56006;BME280;41888;44.696;10.522;2022-10-16T09:47:22;101277.06;;;31.04;49.87
56006;BME280;41888;44.696;10.522;2022-10-16T09:49:53;101273.72;;;29.98;51.53
56006;BME280;41888;44.696;10.522;2022-10-16T09:52:20;101263.59;;;30.46;50.75
56006;BME280;41888;44.696;10.522;2022-10-16T09:54:54;101274.84;;;29.74;52.21
56006;BME280;41888;44.696;10.522;2022-10-16T09:57:22;101277.03;;;28.78;54.64
56006;BME280;41888;44.696;10.522;2022-10-16T09:59:57;101270.81;;;29.00;54.89
56006;BME280;41888;44.696;10.522;2022-10-16T10:02:36;101268.34;;;29.12;53.60
56006;BME280;41888;44.696;10.522;2022-10-16T10:05:25;101270.41;;;28.93;54.90
56006;BME280;41888;44.696;10.522;2022-10-16T10:07:59;101273.84;;;28.98;54.97
56006;BME280;41888;44.696;10.522;2022-10-16T10:10:31;101273.19;;;29.15;54.31
56006;BME280;41888;44.696;10.522;2022-10-16T10:12:58;101276.63;;;29.57;52.94
56006;BME280;41888;44.696;10.522;2022-10-16T10:15:32;101268.97;;;29.67;52.94
56006;BME280;41888;44.696;10.522;2022-10-16T10:17:59;101273.38;;;30.30;51.21
56006;BME280;41888;44.696;10.522;2022-10-16T10:20:33;101265.31;;;30.65;49.34
56006;BME280;41888;44.696;10.522;2022-10-16T10:23:01;101275.84;;;30.80;49.38
56006;BME280;41888;44.696;10.522;2022-10-16T10:31:12;101269.06;;;27.20;59.22
56006;BME280;41888;44.696;10.522;2022-10-16T10:34:05;101263.75;;;26.67;62.34
56006;BME280;41888;44.696;10.522;2022-10-16T10:36:41;101256.91;;;26.70;62.24
56006;BME280;41888;44.696;10.522;2022-10-16T10:39:25;101249.84;;;26.16;63.74
56006;BME280;41888;44.696;10.522;2022-10-16T10:55:17;101255.75;;;24.67;71.18
56006;BME280;41888;44.696;10.522;2022-10-16T11:11:47;101255.66;;;25.37;68.72
56006;BME280;41888;44.696;10.522;2022-10-16T11:14:30;101248.16;;;25.62;67.17
56006;BME280;41888;44.696;10.522;2022-10-16T11:19:46;101243.03;;;25.56;67.75
56006;BME280;41888;44.696;10.522;2022-10-16T11:22:35;101243.25;;;26.46;63.96
56006;BME280;41888;44.696;10.522;2022-10-16T11:25:13;101241.09;;;26.91;62.86
56006;BME280;41888;44.696;10.522;2022-10-16T11:27:55;101240.66;;;27.21;60.62
56006;BME280;41888;44.696;10.522;2022-10-16T11:30:24;101245.75;;;27.09;62.24
56006;BME280;41888;44.696;10.522;2022-10-16T11:35:39;101239.72;;;27.95;57.89
56006;BME280;41888;44.696;10.522;2022-10-16T11:38:34;101240.75;;;27.99;58.20
56006;BME280;41888;44.696;10.522;2022-10-16T11:41:15;101244.34;;;28.13;57.84
56006;BME280;41888;44.696;10.522;2022-10-16T11:43:52;101236.91;;;28.00;58.00
56006;BME280;41888;44.696;10.522;2022-10-16T11:46:21;101247.38;;;27.80;57.89
56006;BME280;41888;44.696;10.522;2022-10-16T11:49:00;101244.44;;;26.82;60.48
56006;BME280;41888;44.696;10.522;2022-10-16T11:52:40;101239.13;;;27.98;57.31
56006;BME280;41888;44.696;10.522;2022-10-16T11:57:23;101235.06;;;26.46;63.22
56006;BME280;41888;44.696;10.522;2022-10-16T12:02:48;101233.44;;;26.69;61.57
56006;BME280;41888;44.696;10.522;2022-10-16T12:05:40;101228.56;;;26.42;60.74
56006;BME280;41888;44.696;10.522;2022-10-16T12:08:15;101234.91;;;26.37;60.71
56006;BME280;41888;44.696;10.522;2022-10-16T12:10:44;101229.63;;;25.59;62.73
56006;BME280;41888;44.696;10.522;2022-10-16T12:13:31;101228.03;;;24.55;68.48
56006;BME280;41888;44.696;10.522;2022-10-16T12:18:45;101224.63;;;24.04;71.49
56006;BME280;41888;44.696;10.522;2022-10-16T12:21:14;101221.38;;;23.87;72.86
56006;BME280;41888;44.696;10.522;2022-10-16T12:23:56;101227.09;;;23.85;73.68
56006;BME280;41888;44.696;10.522;2022-10-16T12:26:30;101218.41;;;23.88;74.28
56006;BME280;41888;44.696;10.522;2022-10-16T12:29:13;101226.78;;;24.02;73.25
56006;BME280;41888;44.696;10.522;2022-10-16T12:31:45;101221.88;;;24.14;72.82
56006;BME280;41888;44.696;10.522;2022-10-16T12:34:40;101227.38;;;23.79;72.88
56006;BME280;41888;44.696;10.522;2022-10-16T12:37:20;101223.28;;;23.71;72.48
56006;BME280;41888;44.696;10.522;2022-10-16T12:39:49;101223.84;;;23.73;73.00
56006;BME280;41888;44.696;10.522;2022-10-16T12:44:56;101225.69;;;23.37;74.75
56006;BME280;41888;44.696;10.522;2022-10-16T12:47:49;101235.75;;;23.32;74.57
56006;BME280;41888;44.696;10.522;2022-10-16T12:50:28;101232.97;;;23.11;75.06
56006;BME280;41888;44.696;10.522;2022-10-16T12:52:57;101241.69;;;23.08;76.23
56006;BME280;41888;44.696;10.522;2022-10-16T12:55:24;101232.47;;;23.09;76.95
56006;BME280;41888;44.696;10.522;2022-10-16T13:00:34;101233.56;;;23.19;77.73
56006;BME280;41888;44.696;10.522;2022-10-16T13:14:10;101232.47;;;23.14;78.02
56006;BME280;41888;44.696;10.522;2022-10-16T13:17:01;101230.84;;;23.29;77.97
56006;BME280;41888;44.696;10.522;2022-10-16T13:22:51;101237.06;;;23.14;78.14
56006;BME280;41888;44.696;10.522;2022-10-16T13:28:09;101244.34;;;22.93;79.75
56006;BME280;41888;44.696;10.522;2022-10-16T13:30:53;101244.66;;;23.07;79.08
56006;BME280;41888;44.696;10.522;2022-10-16T13:33:26;101247.09;;;23.08;80.57
56006;BME280;41888;44.696;10.522;2022-10-16T13:35:57;101250.09;;;23.17;80.30
56006;BME280;41888;44.696;10.522;2022-10-16T13:38:26;101249.28;;;23.22;80.47
56006;BME280;41888;44.696;10.522;2022-10-16T13:41:04;101241.16;;;23.22;79.46
56006;BME280;41888;44.696;10.522;2022-10-16T13:43:50;101249.03;;;23.23;80.18
56006;BME280;41888;44.696;10.522;2022-10-16T13:46:19;101245.00;;;23.36;80.32
56006;BME280;41888;44.696;10.522;2022-10-16T13:48:57;101244.44;;;23.39;80.09
56006;BME280;41888;44.696;10.522;2022-10-16T13:51:24;101241.50;;;23.50;79.72
56006;BME280;41888;44.696;10.522;2022-10-16T13:53:50;101243.41;;;23.55;78.62
56006;BME280;41888;44.696;10.522;2022-10-16T13:56:19;101249.09;;;23.53;78.41
56006;BME280;41888;44.696;10.522;2022-10-16T13:58:46;101247.75;;;23.51;77.80
56006;BME280;41888;44.696;10.522;2022-10-16T14:01:17;101251.53;;;23.55;77.61
56006;BME280;41888;44.696;10.522;2022-10-16T14:03:44;101239.34;;;23.52;77.35
56006;BME280;41888;44.696;10.522;2022-10-16T14:06:16;101245.81;;;23.41;77.04
56006;BME280;41888;44.696;10.522;2022-10-16T14:08:45;101252.84;;;23.37;76.92
56006;BME280;41888;44.696;10.522;2022-10-16T14:11:24;101239.00;;;23.44;76.70
56006;BME280;41888;44.696;10.522;2022-10-16T14:13:51;101247.41;;;23.32;76.80
56006;BME280;41888;44.696;10.522;2022-10-16T14:16:29;101248.22;;;23.23;77.21
56006;BME280;41888;44.696;10.522;2022-10-16T14:21:24;101245.50;;;23.17;78.78
56006;BME280;41888;44.696;10.522;2022-10-16T14:23:52;101247.66;;;23.10;79.82
56006;BME280;41888;44.696;10.522;2022-10-16T14:26:22;101250.34;;;23.05;79.85
56006;BME280;41888;44.696;10.522;2022-10-16T14:29:00;101245.19;;;22.99;79.71
56006;BME280;41888;44.696;10.522;2022-10-16T14:31:32;101250.25;;;22.75;80.34
56006;BME280;41888;44.696;10.522;2022-10-16T14:33:59;101245.09;;;22.73;79.45